Vingtetun — JG4912 — position and weather

sailwx.info

Track history (hours):
 
Tides and Currents Weather Stations Pressure Air Temp Water Temp Dewpoint Dewpoint Depression Visibility Wind Speed Wind Dir Waves Ship Positions

Vingtetun

Last reported at 2017-Oct-18 11:00 UTC. Time now 2017-Oct-18 11:09 UTC.
Position N 35°35' E 139°48'.

Length 65 m; draft 2.7 m.

Type: Passenger vessel. MMSI: 7374127.

Date/timePositionNaut miles runAvg speedWind from/ knotsBaromVisibWave heightAir tempDewpointWater temp
2017-Oct-18 11:00N 35°35' E 139°48'4 7.9
2017-Oct-18 10:30N 35°38' E 139°46'1 0.9
2017-Oct-18 09:24N 35°39' E 139°46'1 2.3
2017-Oct-18 08:57N 35°38' E 139°46'4 8.4
2017-Oct-18 08:30N 35°35' E 139°48'0 0.2
2017-Oct-18 07:59N 35°35' E 139°48'4 8.0
2017-Oct-18 07:30N 35°38' E 139°46'1 1.8
2017-Oct-18 07:00N 35°39' E 139°46'0 0.0
2017-Oct-18 04:49N 35°39' E 139°46'2 6.0
2017-Oct-18 04:25N 35°37' E 139°46'3 7.4
2017-Oct-18 04:00N 35°34' E 139°48'3 4.6
2017-Oct-18 03:23N 35°37' E 139°46'3 4.3
2017-Oct-18 02:47N 35°39' E 139°46'0 0.0
2017-Oct-17 11:51N 35°39' E 139°46'2 5.1
2017-Oct-17 11:28N 35°37' E 139°46'3 6.8
2017-Oct-17 11:01N 35°35' E 139°48'5 6.7
2017-Oct-17 10:17N 35°39' E 139°46'0 0.0
2017-Oct-17 10:00N 35°39' E 139°46'0 0.1
2017-Oct-17 09:11N 35°39' E 139°46'1 3.0
2017-Oct-17 09:00N 35°39' E 139°46'4 7.7
2017-Oct-17 08:30N 35°35' E 139°48'1 1.0
2017-Oct-17 07:58N 35°35' E 139°48'5 7.5
2017-Oct-17 07:19N 35°39' E 139°46'0 0.0
2017-Oct-17 04:49N 35°39' E 139°46'2 5.6
2017-Oct-17 04:28N 35°37' E 139°46'4 8.1
2017-Oct-17 03:59N 35°34' E 139°48'4 5.5
2017-Oct-17 03:16N 35°37' E 139°46'2 5.0
2017-Oct-17 02:54N 35°39' E 139°46'0 0.0
2017-Oct-17 01:41N 35°39' E 139°46'0 0.0
2017-Oct-17 01:29N 35°39' E 139°46'0 0.0
2017-Oct-17 00:53N 35°39' E 139°46'0 0.0
2017-Oct-16 12:29N 35°39' E 139°46'0 0.8
2017-Oct-16 12:00N 35°39' E 139°46'4 7.1
2017-Oct-16 11:29N 35°35' E 139°47'1 1.6
2017-Oct-16 11:01N 35°34' E 139°48'5 5.6
2017-Oct-16 10:08N 35°39' E 139°46'0 0.0
2017-Oct-16 09:58N 35°39' E 139°46'0 0.1
2017-Oct-16 09:12N 35°39' E 139°46'1 5.0
2017-Oct-16 08:59N 35°38' E 139°46'4 8.2
2017-Oct-16 08:30N 35°35' E 139°48'0 0.2
2017-Oct-16 08:00N 35°34' E 139°48'4 8.1
2017-Oct-16 07:30N 35°38' E 139°46'1 1.5
2017-Oct-16 06:52N 35°39' E 139°46'0 0.0
2017-Oct-16 06:26N 35°39' E 139°46'0 0.0
2017-Oct-16 05:57N 35°39' E 139°46'0 0.0
2017-Oct-16 05:29N 35°39' E 139°46'0 0.0
2017-Oct-16 05:00N 35°39' E 139°46'2 3.4
2017-Oct-16 04:30N 35°37' E 139°46'4 8.1
2017-Oct-16 04:00N 35°34' E 139°48'3 4.9
2017-Oct-16 03:23N 35°36' E 139°46'3 5.8
2017-Oct-16 02:55N 35°39' E 139°46'0 0.0
2017-Oct-15 12:09N 35°39' E 139°46'1 3.4
2017-Oct-15 11:58N 35°39' E 139°46'4 7.8
2017-Oct-15 11:30N 35°35' E 139°47'1 1.2
2017-Oct-15 11:00N 35°35' E 139°48'4 7.9
2017-Oct-15 10:30N 35°38' E 139°46'1 1.7
2017-Oct-15 09:57N 35°39' E 139°46'0 0.1
2017-Oct-15 09:11N 35°39' E 139°46'1 3.2
2017-Oct-15 08:57N 35°38' E 139°46'4 7.8
2017-Oct-15 08:30N 35°35' E 139°47'1 1.4
2017-Oct-15 08:00N 35°35' E 139°48'4 8.0
2017-Oct-15 07:30N 35°38' E 139°46'1 0.3
2017-Oct-15 04:48N 35°39' E 139°46'2 5.6
2017-Oct-15 04:30N 35°37' E 139°46'4 7.5
2017-Oct-15 04:00N 35°34' E 139°48'3 4.4
2017-Oct-15 03:22N 35°37' E 139°46'3 6.8
2017-Oct-15 03:00N 35°39' E 139°46'0 0.0
2017-Oct-15 02:19N 35°39' E 139°46'0 0.0
2017-Oct-15 01:57N 35°39' E 139°46'0 0.0
2017-Oct-15 01:29N 35°39' E 139°46'0 0.0
2017-Oct-15 00:57N 35°39' E 139°46'0 0.0
2017-Oct-15 00:25N 35°39' E 139°46'0 0.0
2017-Oct-14 15:00N 35°39' E 139°46'0 0.0
2017-Oct-14 13:00N 35°39' E 139°46'0 0.0
2017-Oct-14 12:30N 35°39' E 139°46'1 1.3
2017-Oct-14 11:59N 35°38' E 139°46'4 8.0
2017-Oct-14 11:30N 35°35' E 139°47'0 0.9
2017-Oct-14 11:00N 35°34' E 139°48'4 8.1
2017-Oct-14 10:30N 35°38' E 139°46'1 0.8
2017-Oct-14 09:15N 35°39' E 139°46'1 2.4
2017-Oct-14 08:57N 35°38' E 139°46'3 7.6
2017-Oct-14 08:30N 35°35' E 139°47'1 1.6
2017-Oct-14 08:00N 35°35' E 139°48'5 1.5
2017-Oct-14 04:50N 35°39' E 139°46'2 5.9
2017-Oct-14 04:29N 35°37' E 139°46'4 7.9
2017-Oct-14 04:00N 35°34' E 139°49'4 5.4
2017-Oct-14 03:19N 35°37' E 139°46'2 6.1
2017-Oct-14 02:58N 35°39' E 139°46'0 0.0
2017-Oct-13 12:10N 35°39' E 139°46'1 3.5
2017-Oct-13 11:59N 35°39' E 139°46'4 7.8
2017-Oct-13 11:29N 35°35' E 139°48'0 0.6
2017-Oct-13 11:00N 35°35' E 139°47'4 7.3
2017-Oct-13 10:30N 35°38' E 139°46'1 0.8
2017-Oct-13 09:10N 35°39' E 139°46'1 4.3
2017-Oct-13 09:01N 35°38' E 139°46'4 8.1
2017-Oct-13 08:30N 35°35' E 139°48'0 0.6
2017-Oct-13 08:01N 35°35' E 139°47'4 1.4
2017-Oct-13 04:49N 35°39' E 139°46'1 4.1
2017-Oct-13 04:30N 35°38' E 139°46'4 8.0
2017-Oct-13 04:00N 35°34' E 139°48'3 4.1
2017-Oct-13 03:22N 35°36' E 139°46'3 5.8
2017-Oct-13 02:55N 35°39' E 139°46'1 0.1
2017-Oct-12 11:54N 35°38' E 139°46'3 8.7
2017-Oct-12 11:30N 35°35' E 139°48'0 0.8
2017-Oct-12 10:58N 35°35' E 139°47'4 8.0
2017-Oct-12 10:30N 35°38' E 139°46'1 1.6
2017-Oct-12 10:00N 35°39' E 139°46'0 0.1
2017-Oct-12 09:07N 35°39' E 139°46'1 3.8
2017-Oct-12 08:54N 35°38' E 139°46'4 8.1
2017-Oct-12 08:23N 35°35' E 139°48'3 3.9
2017-Oct-12 07:41N 35°37' E 139°46'2 8.4
2017-Oct-12 07:29N 35°38' E 139°46'1 0.3
2017-Oct-12 04:47N 35°39' E 139°46'2 5.5
2017-Oct-12 04:29N 35°37' E 139°46'4 7.8
2017-Oct-12 04:00N 35°34' E 139°48'3 5.6
2017-Oct-12 03:28N 35°37' E 139°46'2 0.0
2017-Oct-10 07:28N 35°38' E 139°46'1 1.4
2017-Oct-10 06:59N 35°39' E 139°46'0 0.0
2017-Oct-10 06:30N 35°39' E 139°46'0 0.0
2017-Oct-10 04:48N 35°39' E 139°46'2 6.3
2017-Oct-10 04:27N 35°37' E 139°46'3 7.0
2017-Oct-10 04:00N 35°34' E 139°48'2 3.5
2017-Oct-10 03:30N 35°36' E 139°47'4 0.1
2017-Oct-08 12:08N 35°39' E 139°46'1 3.6
2017-Oct-08 11:57N 35°39' E 139°46'4 8.2
2017-Oct-08 11:30N 35°35' E 139°47'  
Track history (hours):
 
Tides and Currents Weather Stations Pressure Air Temp Water Temp Dewpoint Dewpoint Depression Visibility Wind Speed Wind Dir Waves Ship Positions

Vingtetun

Last reported at 2017-Oct-18 11:00 UTC. Time now 2017-Oct-18 11:09 UTC.
Position N 35°35' E 139°48'.

Length 65 m; draft 2.7 m.

Type: Passenger vessel. MMSI: 7374127.

Date/timePositionNaut miles runAvg speedWind from/ knotsBaromVisibWave heightAir tempDewpointWater temp
2017-Oct-18 11:00N 35°35' E 139°48'4 7.9
2017-Oct-18 10:30N 35°38' E 139°46'1 0.9
2017-Oct-18 09:24N 35°39' E 139°46'1 2.3
2017-Oct-18 08:57N 35°38' E 139°46'4 8.4
2017-Oct-18 08:30N 35°35' E 139°48'0 0.2
2017-Oct-18 07:59N 35°35' E 139°48'4 8.0
2017-Oct-18 07:30N 35°38' E 139°46'1 1.8
2017-Oct-18 07:00N 35°39' E 139°46'0 0.0
2017-Oct-18 04:49N 35°39' E 139°46'2 6.0
2017-Oct-18 04:25N 35°37' E 139°46'3 7.4
2017-Oct-18 04:00N 35°34' E 139°48'3 4.6
2017-Oct-18 03:23N 35°37' E 139°46'3 4.3
2017-Oct-18 02:47N 35°39' E 139°46'0 0.0
2017-Oct-17 11:51N 35°39' E 139°46'2 5.1
2017-Oct-17 11:28N 35°37' E 139°46'3 6.8
2017-Oct-17 11:01N 35°35' E 139°48'5 6.7
2017-Oct-17 10:17N 35°39' E 139°46'0 0.0
2017-Oct-17 10:00N 35°39' E 139°46'0 0.1
2017-Oct-17 09:11N 35°39' E 139°46'1 3.0
2017-Oct-17 09:00N 35°39' E 139°46'4 7.7
2017-Oct-17 08:30N 35°35' E 139°48'1 1.0
2017-Oct-17 07:58N 35°35' E 139°48'5 7.5
2017-Oct-17 07:19N 35°39' E 139°46'0 0.0
2017-Oct-17 04:49N 35°39' E 139°46'2 5.6
2017-Oct-17 04:28N 35°37' E 139°46'4 8.1
2017-Oct-17 03:59N 35°34' E 139°48'4 5.5
2017-Oct-17 03:16N 35°37' E 139°46'2 5.0
2017-Oct-17 02:54N 35°39' E 139°46'0 0.0
2017-Oct-17 01:41N 35°39' E 139°46'0 0.0
2017-Oct-17 01:29N 35°39' E 139°46'0 0.0
2017-Oct-17 00:53N 35°39' E 139°46'0 0.0
2017-Oct-16 12:29N 35°39' E 139°46'0 0.8
2017-Oct-16 12:00N 35°39' E 139°46'4 7.1
2017-Oct-16 11:29N 35°35' E 139°47'1 1.6
2017-Oct-16 11:01N 35°34' E 139°48'5 5.6
2017-Oct-16 10:08N 35°39' E 139°46'0 0.0
2017-Oct-16 09:58N 35°39' E 139°46'0 0.1
2017-Oct-16 09:12N 35°39' E 139°46'1 5.0
2017-Oct-16 08:59N 35°38' E 139°46'4 8.2
2017-Oct-16 08:30N 35°35' E 139°48'0 0.2
2017-Oct-16 08:00N 35°34' E 139°48'4 8.1
2017-Oct-16 07:30N 35°38' E 139°46'1 1.5
2017-Oct-16 06:52N 35°39' E 139°46'0 0.0
2017-Oct-16 06:26N 35°39' E 139°46'0 0.0
2017-Oct-16 05:57N 35°39' E 139°46'0 0.0
2017-Oct-16 05:29N 35°39' E 139°46'0 0.0
2017-Oct-16 05:00N 35°39' E 139°46'2 3.4
2017-Oct-16 04:30N 35°37' E 139°46'4 8.1
2017-Oct-16 04:00N 35°34' E 139°48'3 4.9
2017-Oct-16 03:23N 35°36' E 139°46'3 5.8
2017-Oct-16 02:55N 35°39' E 139°46'0 0.0
2017-Oct-15 12:09N 35°39' E 139°46'1 3.4
2017-Oct-15 11:58N 35°39' E 139°46'4 7.8
2017-Oct-15 11:30N 35°35' E 139°47'1 1.2
2017-Oct-15 11:00N 35°35' E 139°48'4 7.9
2017-Oct-15 10:30N 35°38' E 139°46'1 1.7
2017-Oct-15 09:57N 35°39' E 139°46'0 0.1
2017-Oct-15 09:11N 35°39' E 139°46'1 3.2
2017-Oct-15 08:57N 35°38' E 139°46'4 7.8
2017-Oct-15 08:30N 35°35' E 139°47'1 1.4
2017-Oct-15 08:00N 35°35' E 139°48'4 8.0
2017-Oct-15 07:30N 35°38' E 139°46'1 0.3
2017-Oct-15 04:48N 35°39' E 139°46'2 5.6
2017-Oct-15 04:30N 35°37' E 139°46'4 7.5
2017-Oct-15 04:00N 35°34' E 139°48'3 4.4
2017-Oct-15 03:22N 35°37' E 139°46'3 6.8
2017-Oct-15 03:00N 35°39' E 139°46'0 0.0
2017-Oct-15 02:19N 35°39' E 139°46'0 0.0
2017-Oct-15 01:57N 35°39' E 139°46'0 0.0
2017-Oct-15 01:29N 35°39' E 139°46'0 0.0
2017-Oct-15 00:57N 35°39' E 139°46'0 0.0
2017-Oct-15 00:25N 35°39' E 139°46'0 0.0
2017-Oct-14 15:00N 35°39' E 139°46'0 0.0
2017-Oct-14 13:00N 35°39' E 139°46'0 0.0
2017-Oct-14 12:30N 35°39' E 139°46'1 1.3
2017-Oct-14 11:59N 35°38' E 139°46'4 8.0
2017-Oct-14 11:30N 35°35' E 139°47'0 0.9
2017-Oct-14 11:00N 35°34' E 139°48'4 8.1
2017-Oct-14 10:30N 35°38' E 139°46'1 0.8
2017-Oct-14 09:15N 35°39' E 139°46'1 2.4
2017-Oct-14 08:57N 35°38' E 139°46'3 7.6
2017-Oct-14 08:30N 35°35' E 139°47'1 1.6
2017-Oct-14 08:00N 35°35' E 139°48'5 1.5
2017-Oct-14 04:50N 35°39' E 139°46'2 5.9
2017-Oct-14 04:29N 35°37' E 139°46'4 7.9
2017-Oct-14 04:00N 35°34' E 139°49'4 5.4
2017-Oct-14 03:19N 35°37' E 139°46'2 6.1
2017-Oct-14 02:58N 35°39' E 139°46'0 0.0
2017-Oct-13 12:10N 35°39' E 139°46'1 3.5
2017-Oct-13 11:59N 35°39' E 139°46'4 7.8
2017-Oct-13 11:29N 35°35' E 139°48'0 0.6
2017-Oct-13 11:00N 35°35' E 139°47'4 7.3
2017-Oct-13 10:30N 35°38' E 139°46'1 0.8
2017-Oct-13 09:10N 35°39' E 139°46'1 4.3
2017-Oct-13 09:01N 35°38' E 139°46'4 8.1
2017-Oct-13 08:30N 35°35' E 139°48'0 0.6
2017-Oct-13 08:01N 35°35' E 139°47'4 1.4
2017-Oct-13 04:49N 35°39' E 139°46'1 4.1
2017-Oct-13 04:30N 35°38' E 139°46'4 8.0
2017-Oct-13 04:00N 35°34' E 139°48'3 4.1
2017-Oct-13 03:22N 35°36' E 139°46'3 5.8
2017-Oct-13 02:55N 35°39' E 139°46'1 0.1
2017-Oct-12 11:54N 35°38' E 139°46'3 8.7
2017-Oct-12 11:30N 35°35' E 139°48'0 0.8
2017-Oct-12 10:58N 35°35' E 139°47'4 8.0
2017-Oct-12 10:30N 35°38' E 139°46'1 1.6
2017-Oct-12 10:00N 35°39' E 139°46'0 0.1
2017-Oct-12 09:07N 35°39' E 139°46'1 3.8
2017-Oct-12 08:54N 35°38' E 139°46'4 8.1
2017-Oct-12 08:23N 35°35' E 139°48'3 3.9
2017-Oct-12 07:41N 35°37' E 139°46'2 8.4
2017-Oct-12 07:29N 35°38' E 139°46'1 0.3
2017-Oct-12 04:47N 35°39' E 139°46'2 5.5
2017-Oct-12 04:29N 35°37' E 139°46'4 7.8
2017-Oct-12 04:00N 35°34' E 139°48'3 5.6
2017-Oct-12 03:28N 35°37' E 139°46'2 0.0
2017-Oct-10 07:28N 35°38' E 139°46'1 1.4
2017-Oct-10 06:59N 35°39' E 139°46'0 0.0
2017-Oct-10 06:30N 35°39' E 139°46'0 0.0
2017-Oct-10 04:48N 35°39' E 139°46'2 6.3
2017-Oct-10 04:27N 35°37' E 139°46'3 7.0
2017-Oct-10 04:00N 35°34' E 139°48'2 3.5
2017-Oct-10 03:30N 35°36' E 139°47'4 0.1
2017-Oct-08 12:08N 35°39' E 139°46'1 3.6
2017-Oct-08 11:57N 35°39' E 139°46'4 8.2
2017-Oct-08 11:30N 35°35' E 139°47'  

Dump ship's entire track history